Florahome, Florida
Current Conditions -  °F | °C
As of 9:15 AM on Sunday 21 Dec 2014 (Local Time) from K28J Reporting Station
Light Rain Light Rain  
Wind Chill: 61°   Ceiling: 300
Heat Index: 61°   Visibility: 1.7mi
Dew Point: 61°   Wind: 3mph
Humidity: 100%   Direction: 40°NE
Pressure: 30.14"   Gusts: NA
Location:  29.73°N, 81.88°W
Report Text: K28J 211415Z AUTO 04003KT 1 3/4SM -RA OVC003 16/16 A3014 RMK AO2
Loading
Personal Weather Stations






























Interactive Weather Map New forecast layout! Learn more

10-Day Weather Forecast

Advertisements
Track Severe Weather on mobile